sensor_id;sensor_type;location;lat;lon;timestamp;P1;durP1;ratioP1;P2;durP2;ratioP2
37945;SDS011;23769;52.478;13.448;2023-06-26T00:02:17;15.48;;;11.25;;
37945;SDS011;23769;52.478;13.448;2023-06-26T00:04:44;15.40;;;11.18;;
37945;SDS011;23769;52.478;13.448;2023-06-26T00:07:13;17.40;;;13.82;;
37945;SDS011;23769;52.478;13.448;2023-06-26T00:09:40;13.23;;;11.82;;
37945;SDS011;23769;52.478;13.448;2023-06-26T00:12:08;15.98;;;13.75;;
37945;SDS011;23769;52.478;13.448;2023-06-26T00:14:35;13.15;;;10.70;;
37945;SDS011;23769;52.478;13.448;2023-06-26T00:17:02;12.43;;;10.10;;
37945;SDS011;23769;52.478;13.448;2023-06-26T00:19:30;14.07;;;11.20;;
37945;SDS011;23769;52.478;13.448;2023-06-26T00:21:58;12.73;;;10.85;;
37945;SDS011;23769;52.478;13.448;2023-06-26T00:24:26;13.40;;;10.38;;
37945;SDS011;23769;52.478;13.448;2023-06-26T00:26:54;16.50;;;11.63;;
37945;SDS011;23769;52.478;13.448;2023-06-26T00:29:21;14.48;;;11.05;;
37945;SDS011;23769;52.478;13.448;2023-06-26T00:31:48;14.93;;;10.77;;
37945;SDS011;23769;52.478;13.448;2023-06-26T00:34:15;13.38;;;10.90;;
37945;SDS011;23769;52.478;13.448;2023-06-26T00:36:42;15.52;;;11.05;;
37945;SDS011;23769;52.478;13.448;2023-06-26T00:39:10;15.98;;;12.25;;
37945;SDS011;23769;52.478;13.448;2023-06-26T00:41:39;12.98;;;11.57;;
37945;SDS011;23769;52.478;13.448;2023-06-26T00:44:06;18.92;;;15.35;;
37945;SDS011;23769;52.478;13.448;2023-06-26T00:46:33;16.20;;;14.02;;
37945;SDS011;23769;52.478;13.448;2023-06-26T00:49:02;16.23;;;13.55;;
37945;SDS011;23769;52.478;13.448;2023-06-26T00:51:29;15.35;;;12.40;;
37945;SDS011;23769;52.478;13.448;2023-06-26T00:53:57;13.48;;;11.45;;
37945;SDS011;23769;52.478;13.448;2023-06-26T00:56:24;14.40;;;10.95;;
37945;SDS011;23769;52.478;13.448;2023-06-26T00:58:53;13.80;;;11.20;;
37945;SDS011;23769;52.478;13.448;2023-06-26T01:01:20;15.35;;;12.00;;
37945;SDS011;23769;52.478;13.448;2023-06-26T01:03:51;14.25;;;11.35;;
37945;SDS011;23769;52.478;13.448;2023-06-26T01:06:19;13.98;;;10.85;;
37945;SDS011;23769;52.478;13.448;2023-06-26T01:08:47;12.98;;;11.00;;
37945;SDS011;23769;52.478;13.448;2023-06-26T01:11:14;20.05;;;12.15;;
37945;SDS011;23769;52.478;13.448;2023-06-26T01:13:42;13.35;;;11.85;;
37945;SDS011;23769;52.478;13.448;2023-06-26T01:16:11;16.45;;;12.55;;
37945;SDS011;23769;52.478;13.448;2023-06-26T01:18:39;17.58;;;15.32;;
37945;SDS011;23769;52.478;13.448;2023-06-26T01:21:08;17.00;;;12.77;;
37945;SDS011;23769;52.478;13.448;2023-06-26T01:23:37;13.23;;;11.75;;
37945;SDS011;23769;52.478;13.448;2023-06-26T01:26:16;22.23;;;18.80;;
37945;SDS011;23769;52.478;13.448;2023-06-26T01:28:44;12.63;;;11.00;;
37945;SDS011;23769;52.478;13.448;2023-06-26T01:31:12;13.55;;;12.15;;
37945;SDS011;23769;52.478;13.448;2023-06-26T01:33:40;14.15;;;11.52;;
37945;SDS011;23769;52.478;13.448;2023-06-26T01:36:07;15.32;;;12.18;;
37945;SDS011;23769;52.478;13.448;2023-06-26T01:38:34;15.68;;;13.02;;
37945;SDS011;23769;52.478;13.448;2023-06-26T01:41:02;23.73;;;16.67;;
37945;SDS011;23769;52.478;13.448;2023-06-26T01:43:31;17.38;;;13.55;;
37945;SDS011;23769;52.478;13.448;2023-06-26T01:46:04;17.40;;;13.38;;
37945;SDS011;23769;52.478;13.448;2023-06-26T01:48:33;14.48;;;12.07;;
37945;SDS011;23769;52.478;13.448;2023-06-26T01:51:01;14.10;;;12.32;;
37945;SDS011;23769;52.478;13.448;2023-06-26T01:53:32;13.98;;;12.20;;
37945;SDS011;23769;52.478;13.448;2023-06-26T01:56:03;13.60;;;12.20;;
37945;SDS011;23769;52.478;13.448;2023-06-26T01:58:35;14.85;;;11.80;;
37945;SDS011;23769;52.478;13.448;2023-06-26T02:01:02;17.05;;;13.38;;
37945;SDS011;23769;52.478;13.448;2023-06-26T02:03:30;16.25;;;12.82;;
37945;SDS011;23769;52.478;13.448;2023-06-26T02:05:57;13.80;;;12.40;;
37945;SDS011;23769;52.478;13.448;2023-06-26T02:08:24;14.35;;;12.30;;
37945;SDS011;23769;52.478;13.448;2023-06-26T02:10:51;15.55;;;12.77;;
37945;SDS011;23769;52.478;13.448;2023-06-26T02:13:19;16.38;;;12.98;;
37945;SDS011;23769;52.478;13.448;2023-06-26T02:15:47;13.88;;;12.27;;
37945;SDS011;23769;52.478;13.448;2023-06-26T02:18:15;15.98;;;12.70;;
37945;SDS011;23769;52.478;13.448;2023-06-26T02:20:42;14.68;;;13.18;;
37945;SDS011;23769;52.478;13.448;2023-06-26T02:23:10;14.70;;;12.20;;
37945;SDS011;23769;52.478;13.448;2023-06-26T02:25:37;14.57;;;11.75;;
37945;SDS011;23769;52.478;13.448;2023-06-26T02:28:05;15.70;;;12.35;;
37945;SDS011;23769;52.478;13.448;2023-06-26T02:30:32;16.17;;;13.23;;
37945;SDS011;23769;52.478;13.448;2023-06-26T02:33:00;15.25;;;13.07;;
37945;SDS011;23769;52.478;13.448;2023-06-26T02:35:28;15.70;;;13.25;;
37945;SDS011;23769;52.478;13.448;2023-06-26T02:37:55;14.88;;;13.27;;
37945;SDS011;23769;52.478;13.448;2023-06-26T02:40:22;17.17;;;14.30;;
37945;SDS011;23769;52.478;13.448;2023-06-26T02:42:49;21.17;;;13.68;;
37945;SDS011;23769;52.478;13.448;2023-06-26T02:45:16;14.07;;;12.57;;
37945;SDS011;23769;52.478;13.448;2023-06-26T02:47:44;15.88;;;12.50;;
37945;SDS011;23769;52.478;13.448;2023-06-26T02:50:12;14.88;;;12.68;;
37945;SDS011;23769;52.478;13.448;2023-06-26T02:52:39;17.75;;;14.05;;
37945;SDS011;23769;52.478;13.448;2023-06-26T02:55:07;14.18;;;12.50;;
37945;SDS011;23769;52.478;13.448;2023-06-26T02:57:34;14.88;;;13.02;;
37945;SDS011;23769;52.478;13.448;2023-06-26T03:00:01;16.38;;;14.02;;
37945;SDS011;23769;52.478;13.448;2023-06-26T03:02:31;14.35;;;12.63;;
37945;SDS011;23769;52.478;13.448;2023-06-26T03:04:58;14.25;;;12.38;;
37945;SDS011;23769;52.478;13.448;2023-06-26T03:07:27;15.85;;;13.13;;
37945;SDS011;23769;52.478;13.448;2023-06-26T03:09:54;14.82;;;12.40;;
37945;SDS011;23769;52.478;13.448;2023-06-26T03:12:22;15.57;;;12.70;;
37945;SDS011;23769;52.478;13.448;2023-06-26T03:14:49;15.82;;;12.57;;
37945;SDS011;23769;52.478;13.448;2023-06-26T03:17:16;13.98;;;11.82;;
37945;SDS011;23769;52.478;13.448;2023-06-26T03:19:44;14.82;;;12.40;;
37945;SDS011;23769;52.478;13.448;2023-06-26T03:22:11;18.70;;;13.38;;
37945;SDS011;23769;52.478;13.448;2023-06-26T03:24:39;14.75;;;13.15;;
37945;SDS011;23769;52.478;13.448;2023-06-26T03:27:07;16.25;;;12.23;;
37945;SDS011;23769;52.478;13.448;2023-06-26T03:29:35;14.35;;;12.73;;
37945;SDS011;23769;52.478;13.448;2023-06-26T03:32:02;17.83;;;14.25;;
37945;SDS011;23769;52.478;13.448;2023-06-26T03:34:29;16.00;;;13.98;;
37945;SDS011;23769;52.478;13.448;2023-06-26T03:36:56;17.52;;;14.50;;
37945;SDS011;23769;52.478;13.448;2023-06-26T03:39:24;19.48;;;15.63;;
37945;SDS011;23769;52.478;13.448;2023-06-26T03:41:52;13.88;;;12.45;;
37945;SDS011;23769;52.478;13.448;2023-06-26T03:44:20;15.52;;;13.27;;
37945;SDS011;23769;52.478;13.448;2023-06-26T03:46:49;14.73;;;12.43;;
37945;SDS011;23769;52.478;13.448;2023-06-26T03:49:16;14.23;;;12.63;;
37945;SDS011;23769;52.478;13.448;2023-06-26T03:51:43;14.63;;;12.45;;
37945;SDS011;23769;52.478;13.448;2023-06-26T03:54:10;17.17;;;11.88;;
37945;SDS011;23769;52.478;13.448;2023-06-26T03:56:38;17.27;;;13.90;;
37945;SDS011;23769;52.478;13.448;2023-06-26T03:59:06;17.70;;;12.73;;
37945;SDS011;23769;52.478;13.448;2023-06-26T04:01:33;14.68;;;11.85;;
37945;SDS011;23769;52.478;13.448;2023-06-26T04:04:02;13.00;;;11.15;;
37945;SDS011;23769;52.478;13.448;2023-06-26T04:06:30;13.85;;;11.77;;
37945;SDS011;23769;52.478;13.448;2023-06-26T04:08:58;16.75;;;12.13;;
37945;SDS011;23769;52.478;13.448;2023-06-26T04:11:25;14.77;;;13.23;;
37945;SDS011;23769;52.478;13.448;2023-06-26T04:13:53;14.05;;;12.55;;
37945;SDS011;23769;52.478;13.448;2023-06-26T04:16:22;13.93;;;10.63;;
37945;SDS011;23769;52.478;13.448;2023-06-26T04:18:50;13.20;;;10.98;;
37945;SDS011;23769;52.478;13.448;2023-06-26T04:21:18;13.40;;;11.75;;
37945;SDS011;23769;52.478;13.448;2023-06-26T04:23:45;16.80;;;13.00;;
37945;SDS011;23769;52.478;13.448;2023-06-26T04:26:12;13.85;;;11.27;;
37945;SDS011;23769;52.478;13.448;2023-06-26T04:28:40;13.52;;;11.68;;
37945;SDS011;23769;52.478;13.448;2023-06-26T04:31:07;16.38;;;13.25;;
37945;SDS011;23769;52.478;13.448;2023-06-26T04:33:36;15.10;;;12.73;;
37945;SDS011;23769;52.478;13.448;2023-06-26T04:36:04;17.40;;;13.70;;
37945;SDS011;23769;52.478;13.448;2023-06-26T04:38:31;15.93;;;13.40;;
37945;SDS011;23769;52.478;13.448;2023-06-26T04:40:58;19.52;;;16.67;;
37945;SDS011;23769;52.478;13.448;2023-06-26T04:43:26;20.80;;;16.65;;
37945;SDS011;23769;52.478;13.448;2023-06-26T04:45:53;15.88;;;14.07;;
37945;SDS011;23769;52.478;13.448;2023-06-26T04:48:20;14.82;;;12.38;;
37945;SDS011;23769;52.478;13.448;2023-06-26T04:50:49;16.15;;;13.02;;
37945;SDS011;23769;52.478;13.448;2023-06-26T04:53:19;14.57;;;12.45;;
37945;SDS011;23769;52.478;13.448;2023-06-26T04:55:47;13.13;;;11.23;;
37945;SDS011;23769;52.478;13.448;2023-06-26T04:58:14;13.75;;;11.60;;
37945;SDS011;23769;52.478;13.448;2023-06-26T05:00:41;13.55;;;11.25;;
37945;SDS011;23769;52.478;13.448;2023-06-26T05:03:09;13.80;;;11.07;;
37945;SDS011;23769;52.478;13.448;2023-06-26T05:05:36;12.15;;;10.40;;
37945;SDS011;23769;52.478;13.448;2023-06-26T05:08:17;13.95;;;11.00;;
37945;SDS011;23769;52.478;13.448;2023-06-26T05:10:45;13.32;;;10.77;;
37945;SDS011;23769;52.478;13.448;2023-06-26T05:13:12;13.25;;;10.52;;
37945;SDS011;23769;52.478;13.448;2023-06-26T05:15:42;12.88;;;10.82;;
37945;SDS011;23769;52.478;13.448;2023-06-26T05:18:09;10.93;;;9.80;;
37945;SDS011;23769;52.478;13.448;2023-06-26T05:20:37;12.82;;;10.55;;
37945;SDS011;23769;52.478;13.448;2023-06-26T05:23:04;13.63;;;10.57;;
37945;SDS011;23769;52.478;13.448;2023-06-26T05:25:33;11.60;;;10.35;;
37945;SDS011;23769;52.478;13.448;2023-06-26T05:28:01;11.82;;;10.25;;
37945;SDS011;23769;52.478;13.448;2023-06-26T05:30:30;12.77;;;10.50;;
37945;SDS011;23769;52.478;13.448;2023-06-26T05:32:59;11.80;;;9.75;;
37945;SDS011;23769;52.478;13.448;2023-06-26T05:35:27;12.55;;;10.40;;
37945;SDS011;23769;52.478;13.448;2023-06-26T05:37:55;12.10;;;10.30;;
37945;SDS011;23769;52.478;13.448;2023-06-26T05:40:23;12.07;;;10.77;;
37945;SDS011;23769;52.478;13.448;2023-06-26T05:42:54;13.50;;;11.38;;
37945;SDS011;23769;52.478;13.448;2023-06-26T05:45:21;12.55;;;10.13;;
37945;SDS011;23769;52.478;13.448;2023-06-26T05:47:48;11.07;;;9.43;;
37945;SDS011;23769;52.478;13.448;2023-06-26T05:50:17;15.20;;;10.40;;
37945;SDS011;23769;52.478;13.448;2023-06-26T05:52:44;14.05;;;9.43;;
37945;SDS011;23769;52.478;13.448;2023-06-26T05:55:12;13.25;;;8.88;;
37945;SDS011;23769;52.478;13.448;2023-06-26T05:57:40;11.35;;;9.30;;
37945;SDS011;23769;52.478;13.448;2023-06-26T06:00:09;12.40;;;8.35;;
37945;SDS011;23769;52.478;13.448;2023-06-26T06:02:37;12.45;;;7.72;;
37945;SDS011;23769;52.478;13.448;2023-06-26T06:05:04;12.60;;;7.35;;
37945;SDS011;23769;52.478;13.448;2023-06-26T06:07:32;8.52;;;6.35;;
37945;SDS011;23769;52.478;13.448;2023-06-26T06:09:59;8.70;;;7.18;;
37945;SDS011;23769;52.478;13.448;2023-06-26T06:12:27;8.23;;;7.43;;
37945;SDS011;23769;52.478;13.448;2023-06-26T06:14:55;7.25;;;6.55;;
37945;SDS011;23769;52.478;13.448;2023-06-26T06:17:24;8.45;;;7.43;;
37945;SDS011;23769;52.478;13.448;2023-06-26T06:19:51;8.20;;;6.00;;
37945;SDS011;23769;52.478;13.448;2023-06-26T06:22:18;8.73;;;6.53;;
37945;SDS011;23769;52.478;13.448;2023-06-26T06:24:46;7.75;;;6.93;;
37945;SDS011;23769;52.478;13.448;2023-06-26T06:27:13;7.13;;;6.43;;
37945;SDS011;23769;52.478;13.448;2023-06-26T06:29:40;7.38;;;6.00;;
37945;SDS011;23769;52.478;13.448;2023-06-26T06:32:08;7.07;;;6.38;;
37945;SDS011;23769;52.478;13.448;2023-06-26T06:34:36;7.78;;;6.97;;
37945;SDS011;23769;52.478;13.448;2023-06-26T06:37:04;7.38;;;5.95;;
37945;SDS011;23769;52.478;13.448;2023-06-26T06:39:31;5.68;;;5.13;;
37945;SDS011;23769;52.478;13.448;2023-06-26T06:41:58;6.68;;;5.20;;
37945;SDS011;23769;52.478;13.448;2023-06-26T06:44:25;6.45;;;5.80;;
37945;SDS011;23769;52.478;13.448;2023-06-26T06:46:52;6.32;;;5.72;;
37945;SDS011;23769;52.478;13.448;2023-06-26T06:49:20;5.95;;;5.35;;
37945;SDS011;23769;52.478;13.448;2023-06-26T06:51:48;6.30;;;5.30;;
37945;SDS011;23769;52.478;13.448;2023-06-26T06:54:16;6.82;;;5.35;;
37945;SDS011;23769;52.478;13.448;2023-06-26T06:56:44;6.25;;;5.47;;
37945;SDS011;23769;52.478;13.448;2023-06-26T06:59:12;6.15;;;5.50;;
37945;SDS011;23769;52.478;13.448;2023-06-26T07:01:39;5.97;;;5.35;;
37945;SDS011;23769;52.478;13.448;2023-06-26T07:04:07;6.30;;;5.78;;
37945;SDS011;23769;52.478;13.448;2023-06-26T07:06:34;6.30;;;5.78;;
37945;SDS011;23769;52.478;13.448;2023-06-26T07:09:03;6.15;;;4.80;;
37945;SDS011;23769;52.478;13.448;2023-06-26T07:11:31;7.35;;;4.60;;
37945;SDS011;23769;52.478;13.448;2023-06-26T07:13:58;5.43;;;4.93;;
37945;SDS011;23769;52.478;13.448;2023-06-26T07:16:25;5.93;;;5.32;;
37945;SDS011;23769;52.478;13.448;2023-06-26T07:18:52;7.10;;;6.40;;
37945;SDS011;23769;52.478;13.448;2023-06-26T07:21:20;6.18;;;4.80;;
37945;SDS011;23769;52.478;13.448;2023-06-26T07:23:47;48.35;;;8.13;;
37945;SDS011;23769;52.478;13.448;2023-06-26T07:26:16;8.15;;;5.22;;
37945;SDS011;23769;52.478;13.448;2023-06-26T07:28:43;8.65;;;5.38;;
37945;SDS011;23769;52.478;13.448;2023-06-26T07:31:10;6.32;;;5.00;;
37945;SDS011;23769;52.478;13.448;2023-06-26T07:33:38;5.70;;;5.20;;
37945;SDS011;23769;52.478;13.448;2023-06-26T07:36:08;7.93;;;5.38;;
37945;SDS011;23769;52.478;13.448;2023-06-26T07:38:35;6.32;;;5.43;;
37945;SDS011;23769;52.478;13.448;2023-06-26T07:41:02;4.63;;;4.05;;
37945;SDS011;23769;52.478;13.448;2023-06-26T07:43:31;5.28;;;4.78;;
37945;SDS011;23769;52.478;13.448;2023-06-26T07:45:58;5.95;;;5.10;;
37945;SDS011;23769;52.478;13.448;2023-06-26T07:48:25;5.78;;;5.18;;
37945;SDS011;23769;52.478;13.448;2023-06-26T07:50:53;9.13;;;6.47;;
37945;SDS011;23769;52.478;13.448;2023-06-26T07:53:20;4.93;;;4.43;;
37945;SDS011;23769;52.478;13.448;2023-06-26T07:55:47;7.82;;;5.68;;
37945;SDS011;23769;52.478;13.448;2023-06-26T07:58:14;4.75;;;4.22;;
37945;SDS011;23769;52.478;13.448;2023-06-26T08:00:43;6.15;;;4.13;;
37945;SDS011;23769;52.478;13.448;2023-06-26T08:03:10;5.07;;;4.57;;
37945;SDS011;23769;52.478;13.448;2023-06-26T08:05:42;39.75;;;8.05;;
37945;SDS011;23769;52.478;13.448;2023-06-26T08:08:10;4.40;;;4.00;;
37945;SDS011;23769;52.478;13.448;2023-06-26T08:10:37;4.57;;;4.18;;
37945;SDS011;23769;52.478;13.448;2023-06-26T08:13:04;8.82;;;5.40;;
37945;SDS011;23769;52.478;13.448;2023-06-26T08:15:31;4.97;;;3.95;;
37945;SDS011;23769;52.478;13.448;2023-06-26T08:18:00;4.72;;;4.32;;
37945;SDS011;23769;52.478;13.448;2023-06-26T08:20:28;5.43;;;4.93;;
37945;SDS011;23769;52.478;13.448;2023-06-26T08:22:55;4.30;;;4.00;;
37945;SDS011;23769;52.478;13.448;2023-06-26T08:25:22;9.65;;;5.25;;
37945;SDS011;23769;52.478;13.448;2023-06-26T08:27:50;5.63;;;4.68;;
37945;SDS011;23769;52.478;13.448;2023-06-26T08:30:19;9.70;;;5.18;;
37945;SDS011;23769;52.478;13.448;2023-06-26T08:32:46;16.50;;;5.13;;
37945;SDS011;23769;52.478;13.448;2023-06-26T08:35:15;8.43;;;5.78;;
37945;SDS011;23769;52.478;13.448;2023-06-26T08:37:42;6.38;;;4.30;;
37945;SDS011;23769;52.478;13.448;2023-06-26T08:40:09;4.30;;;3.90;;
37945;SDS011;23769;52.478;13.448;2023-06-26T08:42:37;8.20;;;7.40;;
37945;SDS011;23769;52.478;13.448;2023-06-26T08:45:04;6.70;;;5.57;;
37945;SDS011;23769;52.478;13.448;2023-06-26T08:47:32;4.38;;;3.67;;
37945;SDS011;23769;52.478;13.448;2023-06-26T08:50:04;10.20;;;4.40;;
37945;SDS011;23769;52.478;13.448;2023-06-26T08:52:37;4.50;;;4.10;;
37945;SDS011;23769;52.478;13.448;2023-06-26T08:55:08;4.97;;;3.80;;
37945;SDS011;23769;52.478;13.448;2023-06-26T08:57:36;8.25;;;6.32;;
37945;SDS011;23769;52.478;13.448;2023-06-26T09:00:04;6.68;;;5.72;;
37945;SDS011;23769;52.478;13.448;2023-06-26T09:02:33;5.30;;;4.80;;
37945;SDS011;23769;52.478;13.448;2023-06-26T09:05:01;5.40;;;4.35;;
37945;SDS011;23769;52.478;13.448;2023-06-26T09:07:28;8.65;;;4.70;;
37945;SDS011;23769;52.478;13.448;2023-06-26T09:09:57;5.68;;;5.13;;
37945;SDS011;23769;52.478;13.448;2023-06-26T09:12:26;10.98;;;9.20;;
37945;SDS011;23769;52.478;13.448;2023-06-26T09:14:54;6.00;;;4.70;;
37945;SDS011;23769;52.478;13.448;2023-06-26T09:17:24;7.90;;;7.10;;
37945;SDS011;23769;52.478;13.448;2023-06-26T09:19:52;5.00;;;4.25;;
37945;SDS011;23769;52.478;13.448;2023-06-26T09:22:19;5.97;;;4.47;;
37945;SDS011;23769;52.478;13.448;2023-06-26T09:24:47;8.23;;;6.07;;
37945;SDS011;23769;52.478;13.448;2023-06-26T09:27:17;8.30;;;6.50;;
37945;SDS011;23769;52.478;13.448;2023-06-26T09:29:44;3.78;;;3.38;;
37945;SDS011;23769;52.478;13.448;2023-06-26T09:32:12;4.82;;;4.30;;
37945;SDS011;23769;52.478;13.448;2023-06-26T09:34:41;5.32;;;4.30;;
37945;SDS011;23769;52.478;13.448;2023-06-26T09:37:08;5.00;;;4.50;;
37945;SDS011;23769;52.478;13.448;2023-06-26T09:39:38;6.13;;;4.63;;
37945;SDS011;23769;52.478;13.448;2023-06-26T09:42:05;6.40;;;5.00;;
37945;SDS011;23769;52.478;13.448;2023-06-26T09:44:34;4.90;;;4.30;;
37945;SDS011;23769;52.478;13.448;2023-06-26T09:47:02;7.43;;;6.65;;
37945;SDS011;23769;52.478;13.448;2023-06-26T09:49:29;4.97;;;4.47;;
37945;SDS011;23769;52.478;13.448;2023-06-26T09:51:59;7.07;;;5.50;;
37945;SDS011;23769;52.478;13.448;2023-06-26T09:54:27;8.80;;;6.78;;
37945;SDS011;23769;52.478;13.448;2023-06-26T09:56:55;6.15;;;4.90;;
37945;SDS011;23769;52.478;13.448;2023-06-26T09:59:22;8.43;;;5.15;;
37945;SDS011;23769;52.478;13.448;2023-06-26T10:01:58;5.82;;;4.43;;
37945;SDS011;23769;52.478;13.448;2023-06-26T10:04:25;6.75;;;4.97;;
37945;SDS011;23769;52.478;13.448;2023-06-26T10:06:56;5.88;;;4.80;;
37945;SDS011;23769;52.478;13.448;2023-06-26T10:09:23;7.05;;;4.63;;
37945;SDS011;23769;52.478;13.448;2023-06-26T10:11:52;6.50;;;5.05;;
37945;SDS011;23769;52.478;13.448;2023-06-26T10:14:21;4.97;;;4.32;;
37945;SDS011;23769;52.478;13.448;2023-06-26T10:16:49;5.45;;;4.68;;
37945;SDS011;23769;52.478;13.448;2023-06-26T10:19:18;6.93;;;5.80;;
37945;SDS011;23769;52.478;13.448;2023-06-26T10:21:50;19.67;;;11.88;;
37945;SDS011;23769;52.478;13.448;2023-06-26T10:24:17;6.32;;;5.28;;
37945;SDS011;23769;52.478;13.448;2023-06-26T10:26:46;4.68;;;4.18;;
37945;SDS011;23769;52.478;13.448;2023-06-26T10:29:19;5.70;;;4.50;;
37945;SDS011;23769;52.478;13.448;2023-06-26T10:31:47;6.82;;;4.65;;
37945;SDS011;23769;52.478;13.448;2023-06-26T10:34:18;5.55;;;4.25;;
37945;SDS011;23769;52.478;13.448;2023-06-26T10:36:46;8.65;;;5.60;;
37945;SDS011;23769;52.478;13.448;2023-06-26T10:39:16;8.23;;;4.95;;
37945;SDS011;23769;52.478;13.448;2023-06-26T10:41:44;6.20;;;4.18;;
37945;SDS011;23769;52.478;13.448;2023-06-26T10:44:11;6.60;;;5.00;;
37945;SDS011;23769;52.478;13.448;2023-06-26T10:46:48;5.05;;;4.55;;
37945;SDS011;23769;52.478;13.448;2023-06-26T10:49:19;4.25;;;3.83;;
37945;SDS011;23769;52.478;13.448;2023-06-26T10:51:46;5.75;;;4.03;;
37945;SDS011;23769;52.478;13.448;2023-06-26T10:54:15;5.10;;;3.90;;
37945;SDS011;23769;52.478;13.448;2023-06-26T10:56:42;3.95;;;3.55;;
37945;SDS011;23769;52.478;13.448;2023-06-26T10:59:14;4.63;;;3.50;;
37945;SDS011;23769;52.478;13.448;2023-06-26T11:01:42;6.63;;;5.53;;
37945;SDS011;23769;52.478;13.448;2023-06-26T11:04:09;4.80;;;4.22;;
37945;SDS011;23769;52.478;13.448;2023-06-26T11:06:38;6.68;;;4.47;;
37945;SDS011;23769;52.478;13.448;2023-06-26T11:09:06;9.52;;;4.05;;
37945;SDS011;23769;52.478;13.448;2023-06-26T11:14:24;5.90;;;4.63;;
37945;SDS011;23769;52.478;13.448;2023-06-26T11:16:51;5.45;;;4.30;;
37945;SDS011;23769;52.478;13.448;2023-06-26T11:19:18;4.70;;;3.83;;
37945;SDS011;23769;52.478;13.448;2023-06-26T11:21:47;5.63;;;4.43;;
37945;SDS011;23769;52.478;13.448;2023-06-26T11:24:15;7.57;;;5.65;;
37945;SDS011;23769;52.478;13.448;2023-06-26T11:26:43;6.85;;;5.20;;
37945;SDS011;23769;52.478;13.448;2023-06-26T11:29:11;5.28;;;4.78;;
37945;SDS011;23769;52.478;13.448;2023-06-26T11:31:39;5.78;;;4.57;;
37945;SDS011;23769;52.478;13.448;2023-06-26T11:34:07;6.30;;;4.45;;
37945;SDS011;23769;52.478;13.448;2023-06-26T11:36:35;5.45;;;4.05;;
37945;SDS011;23769;52.478;13.448;2023-06-26T11:39:04;5.72;;;4.78;;
37945;SDS011;23769;52.478;13.448;2023-06-26T11:41:32;8.00;;;7.13;;
37945;SDS011;23769;52.478;13.448;2023-06-26T11:44:00;6.93;;;4.38;;
37945;SDS011;23769;52.478;13.448;2023-06-26T11:46:28;8.35;;;4.70;;
37945;SDS011;23769;52.478;13.448;2023-06-26T11:48:55;5.13;;;4.00;;
37945;SDS011;23769;52.478;13.448;2023-06-26T11:51:22;4.68;;;4.18;;
37945;SDS011;23769;52.478;13.448;2023-06-26T11:53:49;7.50;;;4.75;;
37945;SDS011;23769;52.478;13.448;2023-06-26T11:56:19;5.68;;;4.72;;
37945;SDS011;23769;52.478;13.448;2023-06-26T11:58:57;5.30;;;4.13;;
37945;SDS011;23769;52.478;13.448;2023-06-26T12:01:25;6.18;;;5.20;;
37945;SDS011;23769;52.478;13.448;2023-06-26T12:03:54;6.93;;;4.80;;
37945;SDS011;23769;52.478;13.448;2023-06-26T12:06:21;4.88;;;4.38;;
37945;SDS011;23769;52.478;13.448;2023-06-26T12:08:48;5.60;;;4.95;;
37945;SDS011;23769;52.478;13.448;2023-06-26T12:11:16;7.47;;;4.80;;
37945;SDS011;23769;52.478;13.448;2023-06-26T12:13:45;4.88;;;4.38;;
37945;SDS011;23769;52.478;13.448;2023-06-26T12:16:13;5.10;;;4.30;;
37945;SDS011;23769;52.478;13.448;2023-06-26T12:18:41;6.35;;;5.40;;
37945;SDS011;23769;52.478;13.448;2023-06-26T12:21:08;5.32;;;4.40;;
37945;SDS011;23769;52.478;13.448;2023-06-26T12:23:38;4.28;;;3.72;;
37945;SDS011;23769;52.478;13.448;2023-06-26T12:26:16;5.30;;;4.72;;
37945;SDS011;23769;52.478;13.448;2023-06-26T12:28:45;5.60;;;5.10;;
37945;SDS011;23769;52.478;13.448;2023-06-26T12:31:13;7.55;;;5.50;;
37945;SDS011;23769;52.478;13.448;2023-06-26T12:33:40;6.68;;;4.70;;
37945;SDS011;23769;52.478;13.448;2023-06-26T12:36:10;9.02;;;7.65;;
37945;SDS011;23769;52.478;13.448;2023-06-26T12:38:37;6.65;;;5.95;;
37945;SDS011;23769;52.478;13.448;2023-06-26T12:41:04;5.70;;;4.72;;
37945;SDS011;23769;52.478;13.448;2023-06-26T12:43:31;5.57;;;5.07;;
37945;SDS011;23769;52.478;13.448;2023-06-26T12:46:00;7.45;;;5.25;;
37945;SDS011;23769;52.478;13.448;2023-06-26T12:48:37;8.00;;;4.53;;
37945;SDS011;23769;52.478;13.448;2023-06-26T12:51:09;6.25;;;4.55;;
37945;SDS011;23769;52.478;13.448;2023-06-26T12:53:37;4.85;;;4.35;;
37945;SDS011;23769;52.478;13.448;2023-06-26T12:56:06;6.50;;;4.80;;
37945;SDS011;23769;52.478;13.448;2023-06-26T12:58:33;6.03;;;4.90;;
37945;SDS011;23769;52.478;13.448;2023-06-26T13:01:02;6.80;;;4.85;;
37945;SDS011;23769;52.478;13.448;2023-06-26T13:03:29;5.57;;;4.70;;
37945;SDS011;23769;52.478;13.448;2023-06-26T13:05:57;5.72;;;5.07;;
37945;SDS011;23769;52.478;13.448;2023-06-26T13:08:24;7.22;;;5.43;;
37945;SDS011;23769;52.478;13.448;2023-06-26T13:10:51;6.38;;;4.60;;
37945;SDS011;23769;52.478;13.448;2023-06-26T13:13:18;7.38;;;5.50;;
37945;SDS011;23769;52.478;13.448;2023-06-26T13:15:45;6.10;;;5.20;;
37945;SDS011;23769;52.478;13.448;2023-06-26T13:18:14;7.30;;;6.53;;
37945;SDS011;23769;52.478;13.448;2023-06-26T13:20:41;6.97;;;5.35;;
37945;SDS011;23769;52.478;13.448;2023-06-26T13:23:08;10.50;;;5.57;;
37945;SDS011;23769;52.478;13.448;2023-06-26T13:25:36;5.60;;;5.00;;
37945;SDS011;23769;52.478;13.448;2023-06-26T13:28:03;6.50;;;5.13;;
37945;SDS011;23769;52.478;13.448;2023-06-26T13:30:30;7.85;;;5.55;;
37945;SDS011;23769;52.478;13.448;2023-06-26T13:32:57;6.45;;;5.80;;
37945;SDS011;23769;52.478;13.448;2023-06-26T13:35:26;8.85;;;6.25;;
37945;SDS011;23769;52.478;13.448;2023-06-26T13:37:53;6.57;;;5.50;;
37945;SDS011;23769;52.478;13.448;2023-06-26T13:40:20;7.55;;;5.72;;
37945;SDS011;23769;52.478;13.448;2023-06-26T13:42:48;9.75;;;7.75;;
37945;SDS011;23769;52.478;13.448;2023-06-26T13:45:15;8.30;;;6.35;;
37945;SDS011;23769;52.478;13.448;2023-06-26T13:47:42;8.00;;;7.13;;
37945;SDS011;23769;52.478;13.448;2023-06-26T13:50:09;9.27;;;7.47;;
37945;SDS011;23769;52.478;13.448;2023-06-26T13:52:38;12.52;;;9.05;;
37945;SDS011;23769;52.478;13.448;2023-06-26T13:55:05;7.35;;;5.65;;
37945;SDS011;23769;52.478;13.448;2023-06-26T13:57:33;8.73;;;7.82;;
37945;SDS011;23769;52.478;13.448;2023-06-26T14:00:06;6.70;;;6.03;;
37945;SDS011;23769;52.478;13.448;2023-06-26T14:02:34;9.40;;;6.22;;
37945;SDS011;23769;52.478;13.448;2023-06-26T14:05:01;7.35;;;5.32;;
37945;SDS011;23769;52.478;13.448;2023-06-26T14:07:29;7.05;;;5.95;;
37945;SDS011;23769;52.478;13.448;2023-06-26T14:09:57;9.25;;;6.85;;
37945;SDS011;23769;52.478;13.448;2023-06-26T14:12:25;7.25;;;5.80;;
37945;SDS011;23769;52.478;13.448;2023-06-26T14:14:52;5.85;;;5.22;;
37945;SDS011;23769;52.478;13.448;2023-06-26T14:17:19;7.45;;;6.05;;
37945;SDS011;23769;52.478;13.448;2023-06-26T14:19:49;7.75;;;6.53;;
37945;SDS011;23769;52.478;13.448;2023-06-26T14:22:16;11.38;;;6.15;;
37945;SDS011;23769;52.478;13.448;2023-06-26T14:24:43;15.70;;;7.50;;
37945;SDS011;23769;52.478;13.448;2023-06-26T14:27:12;17.98;;;6.05;;
37945;SDS011;23769;52.478;13.448;2023-06-26T14:29:39;16.52;;;5.03;;
37945;SDS011;23769;52.478;13.448;2023-06-26T14:32:06;13.32;;;5.50;;